PAD weather

Paderborn Lippstadt Airport
Paderborn, North Rhine-Westphalia, Germany

Public forecast

Using degrees Celsius for public forecast. Weather courtesy of forecast.io.

METAR (pilot weather report)

Retrieved 2019/08/18 02:20 UTC (14 minutes ago):

EDLP 180220Z 16006KT 9999 BKN020 17/15 Q1007

TAF (pilot weather forecast)

Forecast is more than 12 hours old.

Retrieved 2019/08/17 00:27 UTC (1 day ago):

TAF TAF EDLP 172300Z 1800/1824 18008KT 9999 BKN025 PROB30 TEMPO 1800/1807 RA TEMPO 1807/1811 4500 RA BKN010 PROB30 TEMPO 1809/1811 BKN007 TEMPO 1812/1818 27010KT